createdAt,value
2022-12-16T00:01:29.822Z,41.47
2022-12-16T00:03:59.939Z,39.05
2022-12-16T00:06:32.416Z,37.90
2022-12-16T00:09:02.896Z,32.65
2022-12-16T00:11:32.116Z,33.63
2022-12-16T00:13:58.980Z,36.95
2022-12-16T00:16:25.952Z,31.80
2022-12-16T00:18:55.359Z,34.40
2022-12-16T00:21:23.197Z,38.15
2022-12-16T00:23:50.018Z,33.40
2022-12-16T00:26:21.421Z,37.03
2022-12-16T00:28:48.830Z,33.55
2022-12-16T00:31:16.113Z,36.80
2022-12-16T00:33:43.215Z,38.70
2022-12-16T00:36:14.737Z,36.28
2022-12-16T00:38:44.163Z,38.05
2022-12-16T00:41:10.984Z,43.08
2022-12-16T00:43:37.894Z,42.67
2022-12-16T00:46:05.140Z,34.65
2022-12-16T00:48:32.043Z,44.70
2022-12-16T00:50:59.030Z,29.10
2022-12-16T00:53:29.348Z,37.42
2022-12-16T00:56:05.814Z,39.30
2022-12-16T00:58:32.963Z,31.98
2022-12-16T01:01:02.442Z,39.60
2022-12-16T01:03:32.124Z,53.80
2022-12-16T01:05:59.234Z,36.70
2022-12-16T01:08:28.402Z,34.92
2022-12-16T01:10:57.230Z,39.00
2022-12-16T01:13:26.129Z,30.58
2022-12-16T01:15:53.485Z,39.15
2022-12-16T01:18:21.370Z,33.65
2022-12-16T01:20:48.296Z,37.60
2022-12-16T01:23:15.302Z,31.80
2022-12-16T01:25:44.745Z,33.00
2022-12-16T01:28:13.861Z,32.65
2022-12-16T01:30:40.776Z,35.60
2022-12-16T01:33:10.841Z,32.60
2022-12-16T01:35:55.448Z,35.03
2022-12-16T01:38:23.133Z,34.33
2022-12-16T01:40:52.228Z,32.40
2022-12-16T01:43:24.558Z,41.15
2022-12-16T01:45:55.933Z,31.95
2022-12-16T01:48:45.591Z,34.22
2022-12-16T01:51:28.178Z,34.92
2022-12-16T01:54:39.684Z,36.03
2022-12-16T01:57:13.832Z,35.80
2022-12-16T01:59:45.186Z,33.50
2022-12-16T02:02:14.211Z,31.95
2022-12-16T02:05:04.475Z,27.88
2022-12-16T02:07:33.858Z,33.10
2022-12-16T02:10:03.283Z,32.47
2022-12-16T02:12:58.127Z,31.48
2022-12-16T02:15:45.291Z,31.67
2022-12-16T02:18:36.906Z,36.83
2022-12-16T02:21:27.893Z,36.33
2022-12-16T02:24:27.206Z,26.35
2022-12-16T02:27:12.072Z,33.33
2022-12-16T02:30:25.013Z,34.53
2022-12-16T02:33:00.385Z,32.88
2022-12-16T02:35:48.489Z,39.47
2022-12-16T02:38:27.540Z,29.52
2022-12-16T02:41:11.481Z,30.98
2022-12-16T02:43:57.833Z,25.85
2022-12-16T02:46:30.114Z,25.95
2022-12-16T02:49:07.724Z,28.27
2022-12-16T02:51:38.930Z,33.00
2022-12-16T02:54:08.228Z,32.55
2022-12-16T02:56:44.154Z,28.08
2022-12-16T02:59:47.883Z,37.13
2022-12-16T03:02:43.147Z,38.08
2022-12-16T03:05:19.605Z,32.20
2022-12-16T03:07:49.034Z,31.25
2022-12-16T03:10:20.450Z,33.03
2022-12-16T03:12:47.517Z,28.50
2022-12-16T03:15:23.565Z,35.03
2022-12-16T03:17:52.888Z,25.77
2022-12-16T03:20:32.904Z,28.52
2022-12-16T03:23:04.881Z,31.40
2022-12-16T03:25:35.612Z,28.20
2022-12-16T03:28:40.301Z,30.50
2022-12-16T03:31:42.686Z,32.60
2022-12-16T03:34:31.716Z,33.63
2022-12-16T03:37:09.722Z,31.73
2022-12-16T03:39:51.168Z,29.00
2022-12-16T03:42:18.675Z,27.02
2022-12-16T03:44:49.505Z,31.25
2022-12-16T03:47:23.080Z,30.55
2022-12-16T03:49:51.097Z,33.33
2022-12-16T03:52:18.176Z,39.55
2022-12-16T03:54:44.998Z,35.55
2022-12-16T03:57:15.424Z,34.03
2022-12-16T03:59:45.210Z,35.35
2022-12-16T04:02:12.228Z,37.20
2022-12-16T04:04:39.310Z,34.00
2022-12-16T04:07:20.480Z,31.50
2022-12-16T04:09:51.474Z,36.33
2022-12-16T04:12:38.598Z,30.23
2022-12-16T04:15:25.706Z,33.65
2022-12-16T04:18:10.963Z,31.55
2022-12-16T04:21:11.448Z,32.85
2022-12-16T04:24:06.349Z,33.22
2022-12-16T04:26:54.331Z,37.37
2022-12-16T04:29:21.273Z,33.43
2022-12-16T04:31:48.934Z,31.53
2022-12-16T04:34:29.257Z,29.53
2022-12-16T04:37:20.286Z,34.13
2022-12-16T04:40:06.518Z,31.48
2022-12-16T04:42:52.159Z,35.13
2022-12-16T04:45:38.263Z,39.78
2022-12-16T04:48:24.564Z,29.13
2022-12-16T04:51:09.779Z,35.97
2022-12-16T04:53:55.083Z,26.83
2022-12-16T04:56:40.303Z,32.43
2022-12-16T04:59:28.083Z,31.63
2022-12-16T05:02:13.546Z,36.17
2022-12-16T05:04:59.263Z,32.03
2022-12-16T05:07:44.555Z,35.53
2022-12-16T05:10:29.626Z,29.23
2022-12-16T05:13:15.304Z,36.60
2022-12-16T05:16:00.582Z,36.37
2022-12-16T05:18:48.466Z,29.73
2022-12-16T05:21:33.566Z,29.85
2022-12-16T05:24:18.792Z,27.97
2022-12-16T05:27:06.767Z,34.23
2022-12-16T05:29:54.728Z,26.85
2022-12-16T05:32:45.078Z,30.00
2022-12-16T05:35:30.375Z,28.50
2022-12-16T05:38:17.871Z,29.63
2022-12-16T05:41:03.570Z,34.97
2022-12-16T05:43:48.718Z,41.80
2022-12-16T05:46:36.746Z,34.95
2022-12-16T05:49:22.364Z,28.13
2022-12-16T05:52:07.949Z,31.45
2022-12-16T05:54:53.269Z,32.28
2022-12-16T05:57:41.365Z,32.65
2022-12-16T06:00:30.819Z,38.03
2022-12-16T06:03:16.446Z,30.70
2022-12-16T06:06:06.930Z,33.45
2022-12-16T06:08:52.217Z,40.05
2022-12-16T06:11:37.946Z,35.13
2022-12-16T06:14:26.027Z,37.92
2022-12-16T06:17:14.011Z,35.42
2022-12-16T06:19:59.183Z,32.47
2022-12-16T06:22:44.416Z,35.45
2022-12-16T06:25:29.814Z,40.45
2022-12-16T06:28:15.514Z,29.42
2022-12-16T06:31:00.756Z,46.10
2022-12-16T06:33:47.115Z,38.35
2022-12-16T06:36:34.793Z,35.63
2022-12-16T06:39:20.525Z,31.63
2022-12-16T06:42:08.324Z,33.20
2022-12-16T06:44:54.106Z,39.30
2022-12-16T06:47:39.685Z,37.50
2022-12-16T06:50:29.950Z,40.33
2022-12-16T06:53:15.215Z,36.53
2022-12-16T06:56:00.841Z,42.28
2022-12-16T06:58:46.227Z,44.40
2022-12-16T07:01:31.907Z,38.17
2022-12-16T07:04:17.375Z,39.58
2022-12-16T07:07:05.262Z,39.90
2022-12-16T07:09:50.798Z,38.20
2022-12-16T07:12:36.088Z,46.28
2022-12-16T07:15:21.999Z,52.50
2022-12-16T07:18:10.103Z,49.83
2022-12-16T07:20:55.187Z,38.97
2022-12-16T07:23:40.499Z,48.35
2022-12-16T07:26:25.931Z,35.30
2022-12-16T07:29:11.585Z,38.78
2022-12-16T07:31:57.497Z,34.15
2022-12-16T07:34:49.965Z,34.15
2022-12-16T07:37:36.088Z,37.30
2022-12-16T07:40:22.510Z,41.03
2022-12-16T07:43:08.043Z,38.67
2022-12-16T07:45:58.225Z,47.55
2022-12-16T07:48:46.615Z,40.95
2022-12-16T07:51:32.170Z,36.25
2022-12-16T07:54:17.446Z,39.58
2022-12-16T07:57:02.880Z,37.40
2022-12-16T07:59:48.277Z,44.13
2022-12-16T08:02:36.147Z,36.17
2022-12-16T08:05:22.084Z,39.23
2022-12-16T08:08:07.923Z,36.17
2022-12-16T08:10:53.291Z,36.88
2022-12-16T08:13:41.257Z,37.08
2022-12-16T08:16:26.650Z,39.63
2022-12-16T08:19:12.402Z,37.03
2022-12-16T08:21:58.315Z,38.03
2022-12-16T08:24:56.119Z,41.50
2022-12-16T08:27:43.699Z,43.07
2022-12-16T08:30:30.397Z,41.50
2022-12-16T08:36:21.213Z,35.03
2022-12-16T08:39:07.129Z,37.40
2022-12-16T08:41:52.866Z,50.50
2022-12-16T08:44:42.925Z,34.23
2022-12-16T08:47:29.119Z,35.87
2022-12-16T08:50:19.043Z,51.03
2022-12-16T08:53:04.649Z,42.33
2022-12-16T08:55:50.442Z,40.10
2022-12-16T08:58:40.439Z,39.60
2022-12-16T09:01:31.961Z,37.73
2022-12-16T09:04:19.613Z,40.53
2022-12-16T09:07:06.313Z,46.83
2022-12-16T09:09:56.665Z,38.50
2022-12-16T09:12:44.593Z,41.47
2022-12-16T09:15:35.699Z,42.37
2022-12-16T09:18:23.683Z,44.40
2022-12-16T09:21:11.934Z,42.60
2022-12-16T09:23:57.814Z,46.10
2022-12-16T09:26:48.462Z,45.20
2022-12-16T09:29:43.360Z,49.67
2022-12-16T09:32:31.742Z,41.17
2022-12-16T09:35:19.721Z,48.20
2022-12-16T09:38:07.955Z,45.80
2022-12-16T09:41:01.779Z,41.93
2022-12-16T09:44:08.728Z,46.97
2022-12-16T09:47:14.642Z,43.23
2022-12-16T09:50:34.099Z,41.57
2022-12-16T09:53:25.545Z,52.07
2022-12-16T09:56:14.016Z,42.90
2022-12-16T09:59:12.097Z,44.07
2022-12-16T10:02:00.180Z,43.20
2022-12-16T10:04:48.582Z,49.57
2022-12-16T10:07:40.005Z,45.47
2022-12-16T10:10:51.608Z,41.37
2022-12-16T10:13:45.784Z,39.67
2022-12-16T10:16:58.964Z,39.40
2022-12-16T10:20:28.321Z,43.20
2022-12-16T10:23:25.087Z,41.50
2022-12-16T10:26:38.015Z,41.67
2022-12-16T10:29:38.409Z,53.50
2022-12-16T10:32:50.131Z,42.03
2022-12-16T10:35:56.200Z,37.77
2022-12-16T10:38:55.651Z,49.03
2022-12-16T10:41:46.108Z,39.80
2022-12-16T10:45:13.526Z,42.07
2022-12-16T10:48:13.473Z,38.33
2022-12-16T10:51:01.395Z,47.03
2022-12-16T10:53:46.996Z,43.57
2022-12-16T10:57:08.831Z,52.17
2022-12-16T10:59:58.860Z,47.80
2022-12-16T11:02:46.981Z,49.63
2022-12-16T11:05:49.663Z,40.50
2022-12-16T11:08:55.547Z,49.10
2022-12-16T11:11:47.207Z,43.60
2022-12-16T11:15:12.594Z,43.67
2022-12-16T11:17:56.016Z,44.97
2022-12-16T11:20:44.961Z,40.30
2022-12-16T11:23:43.509Z,44.03
2022-12-16T11:26:38.395Z,50.73
2022-12-16T11:29:36.847Z,47.27
2022-12-16T11:32:44.152Z,42.20
2022-12-16T11:35:38.352Z,48.07
2022-12-16T11:38:34.959Z,41.87
2022-12-16T11:41:24.298Z,45.30
2022-12-16T11:44:14.567Z,45.00
2022-12-16T11:47:03.626Z,53.33
2022-12-16T11:49:53.019Z,46.60
2022-12-16T11:52:41.269Z,50.83
2022-12-16T11:59:08.660Z,46.27
2022-12-16T12:02:13.961Z,56.20
2022-12-16T12:05:00.147Z,44.13
2022-12-16T12:08:00.661Z,51.93
2022-12-16T12:11:23.630Z,46.10
2022-12-16T12:14:25.118Z,56.07
2022-12-16T12:18:10.298Z,57.77
2022-12-16T12:21:17.636Z,43.53
2022-12-16T12:24:05.895Z,39.63
2022-12-16T12:26:56.551Z,46.93
2022-12-16T12:30:03.069Z,52.50
2022-12-16T12:33:22.656Z,52.60
2022-12-16T12:36:38.280Z,44.63
2022-12-16T12:39:52.420Z,41.33
2022-12-16T12:43:21.687Z,46.47
2022-12-16T12:47:06.920Z,43.50
2022-12-16T12:50:15.201Z,45.70
2022-12-16T12:53:46.218Z,52.83
2022-12-16T12:56:44.826Z,45.77
2022-12-16T13:00:08.014Z,55.93
2022-12-16T13:03:11.605Z,55.80
2022-12-16T13:05:58.216Z,50.13
2022-12-16T13:09:05.206Z,52.33
2022-12-16T13:11:53.229Z,51.50
2022-12-16T13:14:51.608Z,50.00
2022-12-16T13:17:42.440Z,55.70
2022-12-16T13:20:54.799Z,53.50
2022-12-16T13:23:53.755Z,49.53
2022-12-16T13:26:46.744Z,52.00
2022-12-16T13:29:48.355Z,51.77
2022-12-16T13:32:36.617Z,61.03
2022-12-16T13:35:36.584Z,54.50
2022-12-16T13:38:36.201Z,56.87
2022-12-16T13:41:25.856Z,45.53
2022-12-16T13:44:18.729Z,53.83
2022-12-16T13:47:08.038Z,58.80
2022-12-16T13:50:02.541Z,53.17
2022-12-16T13:52:56.638Z,52.80
2022-12-16T13:56:03.687Z,62.27
2022-12-16T13:59:01.185Z,54.23
2022-12-16T14:02:08.593Z,56.27
2022-12-16T14:05:03.547Z,56.83
2022-12-16T14:07:56.907Z,75.03
2022-12-16T14:11:01.051Z,63.63
2022-12-16T14:14:21.283Z,63.23
2022-12-16T14:17:12.760Z,62.60
2022-12-16T14:20:38.650Z,65.90
2022-12-16T14:23:57.005Z,67.40
2022-12-16T14:26:48.063Z,65.80
2022-12-16T14:29:48.307Z,61.50
2022-12-16T14:32:52.484Z,67.80
2022-12-16T14:35:47.619Z,64.73
2022-12-16T14:38:53.977Z,72.60
2022-12-16T14:41:44.434Z,56.57
2022-12-16T14:44:44.731Z,58.00
2022-12-16T14:47:43.255Z,57.57
2022-12-16T14:50:46.640Z,60.20
2022-12-16T14:53:49.255Z,61.20
2022-12-16T14:56:42.296Z,58.63
2022-12-16T14:59:38.214Z,75.13
2022-12-16T15:02:41.970Z,65.07
2022-12-16T15:05:27.712Z,59.23
2022-12-16T15:08:13.789Z,57.73
2022-12-16T15:11:02.382Z,68.40
2022-12-16T15:14:04.239Z,66.00
2022-12-16T15:16:53.594Z,58.30
2022-12-16T15:19:41.548Z,53.43
2022-12-16T15:22:36.283Z,60.10
2022-12-16T15:25:23.192Z,56.57
2022-12-16T15:28:16.158Z,59.57
2022-12-16T15:31:06.639Z,60.20
2022-12-16T15:34:00.032Z,59.30
2022-12-16T15:36:52.949Z,60.27
2022-12-16T15:39:55.042Z,55.80
2022-12-16T15:42:45.709Z,59.20
2022-12-16T15:45:39.002Z,57.43
2022-12-16T15:48:51.431Z,62.13
2022-12-16T15:51:58.597Z,59.40
2022-12-16T15:54:46.771Z,58.73
2022-12-16T15:57:53.650Z,62.97
2022-12-16T16:00:45.179Z,58.23
2022-12-16T16:03:48.191Z,60.80
2022-12-16T16:06:42.946Z,63.80
2022-12-16T16:09:51.588Z,60.13
2022-12-16T16:13:04.245Z,56.03
2022-12-16T16:15:55.815Z,78.87
2022-12-16T16:18:41.606Z,62.73
2022-12-16T16:21:31.022Z,61.53
2022-12-16T16:24:18.082Z,71.90
2022-12-16T16:27:05.678Z,57.63
2022-12-16T16:29:51.531Z,72.37
2022-12-16T16:32:37.447Z,66.20
2022-12-16T16:35:25.464Z,55.70
2022-12-16T16:38:15.348Z,60.47
2022-12-16T16:41:10.026Z,57.10
2022-12-16T16:44:02.127Z,59.90
2022-12-16T16:47:01.041Z,65.10
2022-12-16T16:50:08.383Z,63.70
2022-12-16T16:52:56.397Z,64.70
2022-12-16T16:55:43.760Z,57.40
2022-12-16T16:58:48.945Z,67.10
2022-12-16T17:01:40.486Z,74.33
2022-12-16T17:04:34.942Z,57.63
2022-12-16T17:07:23.783Z,61.70
2022-12-16T17:10:12.137Z,58.33
2022-12-16T17:13:04.451Z,62.63
2022-12-16T17:15:55.978Z,59.90
2022-12-16T17:18:46.727Z,65.93
2022-12-16T17:21:34.982Z,61.20
2022-12-16T17:24:20.960Z,55.57
2022-12-16T17:27:06.518Z,63.83
2022-12-16T17:29:52.035Z,65.70
2022-12-16T17:32:37.454Z,65.37
2022-12-16T17:35:23.399Z,64.17
2022-12-16T17:38:12.448Z,59.60
2022-12-16T17:41:02.775Z,61.93
2022-12-16T17:43:47.813Z,65.87
2022-12-16T17:46:35.693Z,64.00
2022-12-16T17:49:21.830Z,68.27
2022-12-16T17:52:09.688Z,81.60
2022-12-16T17:54:58.918Z,66.57
2022-12-16T17:57:45.011Z,71.13
2022-12-16T18:00:34.845Z,69.73
2022-12-16T18:03:25.289Z,72.73
2022-12-16T18:06:17.278Z,75.30
2022-12-16T18:09:03.472Z,72.20
2022-12-16T18:11:49.694Z,82.00
2022-12-16T18:14:36.175Z,71.33
2022-12-16T18:17:21.905Z,76.07
2022-12-16T18:20:07.776Z,78.40
2022-12-16T18:22:54.061Z,68.37
2022-12-16T18:25:42.225Z,64.40
2022-12-16T18:28:29.262Z,72.77
2022-12-16T18:31:17.041Z,68.80
2022-12-16T18:34:04.903Z,74.03
2022-12-16T18:36:55.092Z,69.13
2022-12-16T18:39:45.391Z,70.67
2022-12-16T18:42:34.177Z,70.77
2022-12-16T18:45:22.468Z,82.47
2022-12-16T18:48:09.069Z,72.97
2022-12-16T18:50:57.011Z,80.73
2022-12-16T18:53:43.293Z,76.57
2022-12-16T18:56:31.929Z,78.60
2022-12-16T18:59:18.126Z,78.30
2022-12-16T19:02:24.044Z,87.73
2022-12-16T19:05:09.860Z,82.27
2022-12-16T19:07:54.995Z,89.87
2022-12-16T19:10:42.793Z,82.60
2022-12-16T19:13:32.913Z,106.37
2022-12-16T19:16:21.588Z,82.67
2022-12-16T19:19:11.743Z,87.50
2022-12-16T19:21:59.219Z,93.97
2022-12-16T19:24:46.954Z,76.73
2022-12-16T19:27:32.374Z,87.90
2022-12-16T19:30:17.916Z,95.47
2022-12-16T19:33:08.999Z,93.27
2022-12-16T19:35:54.751Z,94.37
2022-12-16T19:38:42.180Z,90.00
2022-12-16T19:41:51.268Z,90.50
2022-12-16T19:44:39.543Z,89.40
2022-12-16T19:47:27.816Z,86.70
2022-12-16T19:50:13.400Z,92.57
2022-12-16T19:52:59.091Z,84.53
2022-12-16T19:55:44.278Z,96.20
2022-12-16T19:58:30.011Z,116.93
2022-12-16T20:01:15.416Z,91.50
2022-12-16T20:04:00.695Z,86.40
2022-12-16T20:06:46.026Z,89.07
2022-12-16T20:09:33.644Z,85.40
2022-12-16T20:12:19.077Z,80.17
2022-12-16T20:15:04.765Z,96.90
2022-12-16T20:17:51.682Z,82.40
2022-12-16T20:20:37.089Z,74.70
2022-12-16T20:23:22.696Z,81.83
2022-12-16T20:26:21.751Z,81.03
2022-12-16T20:29:09.779Z,73.17
2022-12-16T20:31:55.962Z,73.73
2022-12-16T20:34:41.977Z,71.47
2022-12-16T20:37:27.970Z,80.50
2022-12-16T20:40:16.028Z,77.30
2022-12-16T20:43:01.942Z,73.23
2022-12-16T20:45:47.749Z,88.83
2022-12-16T20:48:35.260Z,88.70
2022-12-16T20:51:26.898Z,82.67
2022-12-16T20:54:12.975Z,97.97
2022-12-16T20:56:59.154Z,82.70
2022-12-16T20:59:45.272Z,91.10
2022-12-16T21:02:34.473Z,96.47
2022-12-16T21:05:20.831Z,90.87
2022-12-16T21:08:06.639Z,89.93
2022-12-16T21:10:56.288Z,88.07
2022-12-16T21:13:45.856Z,87.30
2022-12-16T21:16:33.792Z,100.63
2022-12-16T21:19:18.955Z,97.77
2022-12-16T21:22:07.225Z,94.20
2022-12-16T21:24:53.159Z,99.00
2022-12-16T21:27:39.173Z,83.80
2022-12-16T21:30:27.855Z,93.37
2022-12-16T21:33:13.209Z,94.57
2022-12-16T21:36:01.103Z,100.13
2022-12-16T21:38:46.433Z,94.33
2022-12-16T21:41:31.902Z,103.43
2022-12-16T21:44:17.444Z,97.27
2022-12-16T21:47:02.806Z,103.00
2022-12-16T21:49:48.597Z,101.90
2022-12-16T21:52:34.147Z,89.97
2022-12-16T21:55:19.566Z,97.50
2022-12-16T21:58:04.863Z,94.43
2022-12-16T22:00:56.168Z,98.90
2022-12-16T22:03:53.222Z,89.33
2022-12-16T22:06:42.171Z,98.73
2022-12-16T22:09:31.499Z,108.53
2022-12-16T22:12:19.828Z,109.70
2022-12-16T22:15:05.640Z,109.60
2022-12-16T22:17:58.381Z,86.97
2022-12-16T22:20:45.026Z,85.00
2022-12-16T22:23:30.817Z,98.77
2022-12-16T22:26:18.526Z,99.03
2022-12-16T22:29:04.527Z,77.83
2022-12-16T22:31:50.325Z,92.73
2022-12-16T22:34:36.306Z,105.07
2022-12-16T22:37:21.727Z,96.53
2022-12-16T22:40:07.190Z,98.80
2022-12-16T22:42:55.087Z,94.17
2022-12-16T22:45:42.221Z,90.43
2022-12-16T22:48:32.322Z,83.33
2022-12-16T22:51:20.057Z,80.53
2022-12-16T22:54:09.791Z,82.80
2022-12-16T23:00:01.505Z,79.23
2022-12-16T23:02:51.869Z,77.70
2022-12-16T23:05:37.605Z,74.37
2022-12-16T23:08:23.659Z,78.10
2022-12-16T23:11:17.614Z,85.37
2022-12-16T23:14:03.693Z,71.87
2022-12-16T23:16:51.450Z,77.50
2022-12-16T23:19:41.155Z,78.77
2022-12-16T23:22:28.961Z,73.63
2022-12-16T23:25:14.652Z,71.23
2022-12-16T23:27:59.783Z,65.10
2022-12-16T23:30:45.199Z,78.17
2022-12-16T23:32:30.681Z,76.47
2022-12-16T23:33:30.453Z,79.37
2022-12-16T23:36:16.295Z,77.93
2022-12-16T23:39:01.484Z,74.53
2022-12-16T23:41:48.949Z,79.53
2022-12-16T23:44:34.762Z,74.80
2022-12-16T23:47:20.315Z,74.97
2022-12-16T23:50:07.059Z,68.03
2022-12-16T23:52:53.676Z,86.13
2022-12-16T23:55:42.190Z,81.10
2022-12-16T23:58:32.310Z,78.10
